sensor_id;sensor_type;location;lat;lon;timestamp;P1;durP1;ratioP1;P2;durP2;ratioP2
4533;SDS011;2279;51.448;7.306;2023-07-30T00:00:50;9.20;;;4.73;;
4533;SDS011;2279;51.448;7.306;2023-07-30T00:03:16;6.13;;;4.50;;
4533;SDS011;2279;51.448;7.306;2023-07-30T00:05:42;9.17;;;5.53;;
4533;SDS011;2279;51.448;7.306;2023-07-30T00:08:08;5.07;;;3.97;;
4533;SDS011;2279;51.448;7.306;2023-07-30T00:10:35;7.53;;;4.60;;
4533;SDS011;2279;51.448;7.306;2023-07-30T00:13:01;4.23;;;3.80;;
4533;SDS011;2279;51.448;7.306;2023-07-30T00:15:27;10.10;;;4.70;;
4533;SDS011;2279;51.448;7.306;2023-07-30T00:17:53;7.87;;;4.30;;
4533;SDS011;2279;51.448;7.306;2023-07-30T00:20:19;11.00;;;4.37;;
4533;SDS011;2279;51.448;7.306;2023-07-30T00:22:45;5.73;;;4.00;;
4533;SDS011;2279;51.448;7.306;2023-07-30T00:25:11;12.63;;;3.97;;
4533;SDS011;2279;51.448;7.306;2023-07-30T00:27:37;5.57;;;4.00;;
4533;SDS011;2279;51.448;7.306;2023-07-30T00:30:03;3.97;;;3.57;;
4533;SDS011;2279;51.448;7.306;2023-07-30T00:32:29;7.50;;;3.50;;
4533;SDS011;2279;51.448;7.306;2023-07-30T00:34:55;10.17;;;4.17;;
4533;SDS011;2279;51.448;7.306;2023-07-30T00:37:21;5.57;;;3.80;;
4533;SDS011;2279;51.448;7.306;2023-07-30T00:39:47;6.57;;;4.00;;
4533;SDS011;2279;51.448;7.306;2023-07-30T00:42:13;213.30;;;59.17;;
4533;SDS011;2279;51.448;7.306;2023-07-30T00:44:39;216.43;;;60.67;;
4533;SDS011;2279;51.448;7.306;2023-07-30T00:47:05;218.80;;;59.27;;
4533;SDS011;2279;51.448;7.306;2023-07-30T00:49:31;220.27;;;62.17;;
4533;SDS011;2279;51.448;7.306;2023-07-30T00:51:57;217.48;;;60.08;;
4533;SDS011;2279;51.448;7.306;2023-07-30T00:54:23;216.17;;;59.07;;
4533;SDS011;2279;51.448;7.306;2023-07-30T00:56:51;216.57;;;63.58;;
4533;SDS011;2279;51.448;7.306;2023-07-30T00:59:17;218.73;;;64.65;;
4533;SDS011;2279;51.448;7.306;2023-07-30T01:01:43;216.13;;;59.28;;
4533;SDS011;2279;51.448;7.306;2023-07-30T01:04:11;218.10;;;59.65;;
4533;SDS011;2279;51.448;7.306;2023-07-30T01:06:37;213.80;;;59.47;;
4533;SDS011;2279;51.448;7.306;2023-07-30T01:09:03;212.83;;;58.07;;
4533;SDS011;2279;51.448;7.306;2023-07-30T01:11:29;213.80;;;58.67;;
4533;SDS011;2279;51.448;7.306;2023-07-30T01:13:55;214.97;;;60.40;;
4533;SDS011;2279;51.448;7.306;2023-07-30T01:16:21;211.82;;;57.75;;
4533;SDS011;2279;51.448;7.306;2023-07-30T01:18:47;215.13;;;61.35;;
4533;SDS011;2279;51.448;7.306;2023-07-30T01:21:14;212.80;;;60.72;;
4533;SDS011;2279;51.448;7.306;2023-07-30T01:23:40;214.20;;;59.17;;
4533;SDS011;2279;51.448;7.306;2023-07-30T01:26:10;211.83;;;58.07;;
4533;SDS011;2279;51.448;7.306;2023-07-30T01:28:39;211.65;;;58.13;;
4533;SDS011;2279;51.448;7.306;2023-07-30T01:31:08;212.60;;;58.90;;
4533;SDS011;2279;51.448;7.306;2023-07-30T01:33:36;213.35;;;58.47;;
4533;SDS011;2279;51.448;7.306;2023-07-30T01:36:03;216.15;;;59.45;;
4533;SDS011;2279;51.448;7.306;2023-07-30T01:38:29;211.88;;;58.88;;
4533;SDS011;2279;51.448;7.306;2023-07-30T01:40:55;211.85;;;57.78;;
4533;SDS011;2279;51.448;7.306;2023-07-30T01:43:21;213.48;;;59.00;;
4533;SDS011;2279;51.448;7.306;2023-07-30T01:45:47;209.87;;;57.17;;
4533;SDS011;2279;51.448;7.306;2023-07-30T01:48:13;211.10;;;57.07;;
4533;SDS011;2279;51.448;7.306;2023-07-30T01:50:39;212.18;;;57.03;;
4533;SDS011;2279;51.448;7.306;2023-07-30T01:53:05;211.73;;;59.17;;
4533;SDS011;2279;51.448;7.306;2023-07-30T01:55:31;212.00;;;57.80;;
4533;SDS011;2279;51.448;7.306;2023-07-30T01:57:57;211.47;;;57.90;;
4533;SDS011;2279;51.448;7.306;2023-07-30T02:00:23;212.17;;;57.60;;
4533;SDS011;2279;51.448;7.306;2023-07-30T02:02:49;210.10;;;57.57;;
4533;SDS011;2279;51.448;7.306;2023-07-30T02:05:15;213.30;;;62.00;;
4533;SDS011;2279;51.448;7.306;2023-07-30T02:07:41;214.97;;;57.67;;
4533;SDS011;2279;51.448;7.306;2023-07-30T02:10:07;212.83;;;58.80;;
4533;SDS011;2279;51.448;7.306;2023-07-30T02:12:33;216.93;;;64.75;;
4533;SDS011;2279;51.448;7.306;2023-07-30T02:14:59;211.20;;;55.80;;
4533;SDS011;2279;51.448;7.306;2023-07-30T02:17:25;212.77;;;56.90;;
4533;SDS011;2279;51.448;7.306;2023-07-30T02:19:51;215.77;;;60.30;;
4533;SDS011;2279;51.448;7.306;2023-07-30T02:22:17;211.23;;;56.47;;
4533;SDS011;2279;51.448;7.306;2023-07-30T02:24:43;211.17;;;56.43;;
4533;SDS011;2279;51.448;7.306;2023-07-30T02:27:09;211.40;;;56.00;;
4533;SDS011;2279;51.448;7.306;2023-07-30T02:29:35;209.17;;;55.63;;
4533;SDS011;2279;51.448;7.306;2023-07-30T02:32:01;209.10;;;55.00;;
4533;SDS011;2279;51.448;7.306;2023-07-30T02:34:26;209.03;;;56.10;;
4533;SDS011;2279;51.448;7.306;2023-07-30T02:36:52;210.07;;;56.47;;
4533;SDS011;2279;51.448;7.306;2023-07-30T02:39:18;211.97;;;58.37;;
4533;SDS011;2279;51.448;7.306;2023-07-30T02:41:45;213.23;;;56.72;;
4533;SDS011;2279;51.448;7.306;2023-07-30T02:44:11;208.60;;;54.87;;
4533;SDS011;2279;51.448;7.306;2023-07-30T02:46:37;209.17;;;56.10;;
4533;SDS011;2279;51.448;7.306;2023-07-30T02:49:03;211.53;;;55.40;;
4533;SDS011;2279;51.448;7.306;2023-07-30T02:51:29;210.17;;;56.20;;
4533;SDS011;2279;51.448;7.306;2023-07-30T02:53:57;208.07;;;55.67;;
4533;SDS011;2279;51.448;7.306;2023-07-30T02:56:24;211.02;;;56.53;;
4533;SDS011;2279;51.448;7.306;2023-07-30T02:58:50;210.10;;;55.97;;
4533;SDS011;2279;51.448;7.306;2023-07-30T03:01:16;210.20;;;56.33;;
4533;SDS011;2279;51.448;7.306;2023-07-30T03:03:42;211.93;;;56.10;;
4533;SDS011;2279;51.448;7.306;2023-07-30T03:06:08;210.93;;;56.27;;
4533;SDS011;2279;51.448;7.306;2023-07-30T03:08:34;211.98;;;55.63;;
4533;SDS011;2279;51.448;7.306;2023-07-30T03:11:01;211.35;;;55.70;;
4533;SDS011;2279;51.448;7.306;2023-07-30T03:13:27;211.80;;;56.13;;
4533;SDS011;2279;51.448;7.306;2023-07-30T03:15:53;210.37;;;55.90;;
4533;SDS011;2279;51.448;7.306;2023-07-30T03:18:19;213.00;;;56.10;;
4533;SDS011;2279;51.448;7.306;2023-07-30T03:20:45;211.43;;;56.10;;
4533;SDS011;2279;51.448;7.306;2023-07-30T03:23:11;209.27;;;55.50;;
4533;SDS011;2279;51.448;7.306;2023-07-30T03:25:37;210.77;;;56.17;;
4533;SDS011;2279;51.448;7.306;2023-07-30T03:28:03;210.17;;;55.90;;
4533;SDS011;2279;51.448;7.306;2023-07-30T03:30:29;209.93;;;55.45;;
4533;SDS011;2279;51.448;7.306;2023-07-30T03:32:55;209.50;;;55.83;;
4533;SDS011;2279;51.448;7.306;2023-07-30T03:35:21;208.13;;;55.00;;
4533;SDS011;2279;51.448;7.306;2023-07-30T03:37:47;212.00;;;57.17;;
4533;SDS011;2279;51.448;7.306;2023-07-30T03:40:13;210.13;;;54.87;;
4533;SDS011;2279;51.448;7.306;2023-07-30T03:42:39;212.80;;;55.57;;
4533;SDS011;2279;51.448;7.306;2023-07-30T03:45:05;211.40;;;55.70;;
4533;SDS011;2279;51.448;7.306;2023-07-30T03:47:31;212.13;;;56.15;;
4533;SDS011;2279;51.448;7.306;2023-07-30T03:49:57;211.67;;;56.40;;
4533;SDS011;2279;51.448;7.306;2023-07-30T03:52:23;212.60;;;56.67;;
4533;SDS011;2279;51.448;7.306;2023-07-30T03:54:49;210.37;;;55.50;;
4533;SDS011;2279;51.448;7.306;2023-07-30T03:57:15;211.10;;;55.20;;
4533;SDS011;2279;51.448;7.306;2023-07-30T03:59:41;211.37;;;56.40;;
4533;SDS011;2279;51.448;7.306;2023-07-30T04:02:07;210.27;;;55.37;;
4533;SDS011;2279;51.448;7.306;2023-07-30T04:04:33;211.77;;;55.80;;
4533;SDS011;2279;51.448;7.306;2023-07-30T04:06:58;210.63;;;54.93;;
4533;SDS011;2279;51.448;7.306;2023-07-30T04:09:24;212.17;;;56.87;;
4533;SDS011;2279;51.448;7.306;2023-07-30T04:11:50;207.60;;;55.10;;
4533;SDS011;2279;51.448;7.306;2023-07-30T04:14:17;209.23;;;56.30;;
4533;SDS011;2279;51.448;7.306;2023-07-30T04:16:43;209.77;;;55.60;;
4533;SDS011;2279;51.448;7.306;2023-07-30T04:19:11;210.07;;;56.05;;
4533;SDS011;2279;51.448;7.306;2023-07-30T04:21:37;211.17;;;56.50;;
4533;SDS011;2279;51.448;7.306;2023-07-30T04:24:03;212.10;;;55.80;;
4533;SDS011;2279;51.448;7.306;2023-07-30T04:26:29;210.20;;;56.25;;
4533;SDS011;2279;51.448;7.306;2023-07-30T04:28:55;209.40;;;55.07;;
4533;SDS011;2279;51.448;7.306;2023-07-30T04:31:21;212.47;;;56.30;;
4533;SDS011;2279;51.448;7.306;2023-07-30T04:33:47;211.33;;;56.17;;
4533;SDS011;2279;51.448;7.306;2023-07-30T04:36:13;213.07;;;56.30;;
4533;SDS011;2279;51.448;7.306;2023-07-30T04:38:39;210.27;;;55.57;;
4533;SDS011;2279;51.448;7.306;2023-07-30T04:41:05;208.97;;;54.73;;
4533;SDS011;2279;51.448;7.306;2023-07-30T04:43:31;212.10;;;56.08;;
4533;SDS011;2279;51.448;7.306;2023-07-30T04:45:58;210.60;;;55.80;;
4533;SDS011;2279;51.448;7.306;2023-07-30T04:48:24;213.20;;;56.37;;
4533;SDS011;2279;51.448;7.306;2023-07-30T04:50:49;213.07;;;55.67;;
4533;SDS011;2279;51.448;7.306;2023-07-30T04:53:15;212.47;;;56.17;;
4533;SDS011;2279;51.448;7.306;2023-07-30T04:55:43;212.82;;;55.33;;
4533;SDS011;2279;51.448;7.306;2023-07-30T04:58:09;214.48;;;58.40;;
4533;SDS011;2279;51.448;7.306;2023-07-30T05:00:35;211.88;;;55.20;;
4533;SDS011;2279;51.448;7.306;2023-07-30T05:03:01;213.07;;;56.57;;
4533;SDS011;2279;51.448;7.306;2023-07-30T05:05:27;215.05;;;57.25;;
4533;SDS011;2279;51.448;7.306;2023-07-30T05:07:53;211.33;;;55.80;;
4533;SDS011;2279;51.448;7.306;2023-07-30T05:10:19;212.93;;;57.40;;
4533;SDS011;2279;51.448;7.306;2023-07-30T05:12:45;213.57;;;56.77;;
4533;SDS011;2279;51.448;7.306;2023-07-30T05:15:11;213.23;;;56.50;;
4533;SDS011;2279;51.448;7.306;2023-07-30T05:17:37;213.07;;;56.83;;
4533;SDS011;2279;51.448;7.306;2023-07-30T05:20:03;210.67;;;56.57;;
4533;SDS011;2279;51.448;7.306;2023-07-30T05:22:29;211.85;;;57.22;;
4533;SDS011;2279;51.448;7.306;2023-07-30T05:24:55;213.07;;;58.80;;
4533;SDS011;2279;51.448;7.306;2023-07-30T05:27:21;212.80;;;56.90;;
4533;SDS011;2279;51.448;7.306;2023-07-30T05:29:47;219.43;;;63.13;;
4533;SDS011;2279;51.448;7.306;2023-07-30T05:32:13;212.30;;;56.50;;
4533;SDS011;2279;51.448;7.306;2023-07-30T05:34:39;213.03;;;56.57;;
4533;SDS011;2279;51.448;7.306;2023-07-30T05:37:05;213.23;;;56.87;;
4533;SDS011;2279;51.448;7.306;2023-07-30T05:39:31;215.63;;;58.37;;
4533;SDS011;2279;51.448;7.306;2023-07-30T05:41:57;215.00;;;58.20;;
4533;SDS011;2279;51.448;7.306;2023-07-30T05:44:23;213.27;;;55.97;;
4533;SDS011;2279;51.448;7.306;2023-07-30T05:46:49;214.17;;;57.93;;
4533;SDS011;2279;51.448;7.306;2023-07-30T05:49:15;213.90;;;57.57;;
4533;SDS011;2279;51.448;7.306;2023-07-30T05:51:41;218.23;;;61.80;;
4533;SDS011;2279;51.448;7.306;2023-07-30T05:54:07;215.17;;;57.77;;
4533;SDS011;2279;51.448;7.306;2023-07-30T05:56:33;216.87;;;59.13;;
4533;SDS011;2279;51.448;7.306;2023-07-30T05:58:59;217.33;;;59.53;;
4533;SDS011;2279;51.448;7.306;2023-07-30T06:01:24;218.53;;;60.83;;
4533;SDS011;2279;51.448;7.306;2023-07-30T06:03:50;214.87;;;58.77;;
4533;SDS011;2279;51.448;7.306;2023-07-30T06:06:16;219.03;;;60.20;;
4533;SDS011;2279;51.448;7.306;2023-07-30T06:08:44;216.93;;;60.42;;
4533;SDS011;2279;51.448;7.306;2023-07-30T06:11:10;215.83;;;58.40;;
4533;SDS011;2279;51.448;7.306;2023-07-30T06:13:36;218.17;;;58.80;;
4533;SDS011;2279;51.448;7.306;2023-07-30T06:16:03;216.23;;;59.10;;
4533;SDS011;2279;51.448;7.306;2023-07-30T06:18:29;217.38;;;59.05;;
4533;SDS011;2279;51.448;7.306;2023-07-30T06:20:55;216.63;;;58.07;;
4533;SDS011;2279;51.448;7.306;2023-07-30T06:23:20;216.77;;;58.63;;
4533;SDS011;2279;51.448;7.306;2023-07-30T06:25:46;215.43;;;57.10;;
4533;SDS011;2279;51.448;7.306;2023-07-30T06:28:12;215.67;;;57.60;;
4533;SDS011;2279;51.448;7.306;2023-07-30T06:30:38;215.67;;;58.00;;
4533;SDS011;2279;51.448;7.306;2023-07-30T06:33:04;215.70;;;57.40;;
4533;SDS011;2279;51.448;7.306;2023-07-30T06:35:30;216.03;;;58.10;;
4533;SDS011;2279;51.448;7.306;2023-07-30T06:37:56;218.93;;;61.47;;
4533;SDS011;2279;51.448;7.306;2023-07-30T06:40:22;215.57;;;57.33;;
4533;SDS011;2279;51.448;7.306;2023-07-30T06:42:48;215.37;;;57.37;;
4533;SDS011;2279;51.448;7.306;2023-07-30T06:45:14;216.27;;;59.27;;
4533;SDS011;2279;51.448;7.306;2023-07-30T06:47:40;218.77;;;57.80;;
4533;SDS011;2279;51.448;7.306;2023-07-30T06:50:06;217.43;;;58.97;;
4533;SDS011;2279;51.448;7.306;2023-07-30T06:52:35;218.25;;;59.97;;
4533;SDS011;2279;51.448;7.306;2023-07-30T06:55:02;216.20;;;57.88;;
4533;SDS011;2279;51.448;7.306;2023-07-30T06:57:29;216.65;;;57.65;;
4533;SDS011;2279;51.448;7.306;2023-07-30T06:59:55;219.32;;;60.80;;
4533;SDS011;2279;51.448;7.306;2023-07-30T07:02:22;214.32;;;56.22;;
4533;SDS011;2279;51.448;7.306;2023-07-30T07:04:48;215.10;;;57.20;;
4533;SDS011;2279;51.448;7.306;2023-07-30T07:07:15;217.25;;;58.30;;
4533;SDS011;2279;51.448;7.306;2023-07-30T07:09:41;218.65;;;60.47;;
4533;SDS011;2279;51.448;7.306;2023-07-30T07:12:07;216.47;;;58.17;;
4533;SDS011;2279;51.448;7.306;2023-07-30T07:14:33;216.40;;;58.35;;
4533;SDS011;2279;51.448;7.306;2023-07-30T07:16:59;212.67;;;56.10;;
4533;SDS011;2279;51.448;7.306;2023-07-30T07:19:25;214.57;;;57.87;;
4533;SDS011;2279;51.448;7.306;2023-07-30T07:21:51;217.17;;;58.50;;
4533;SDS011;2279;51.448;7.306;2023-07-30T07:24:17;213.97;;;56.77;;
4533;SDS011;2279;51.448;7.306;2023-07-30T07:26:42;214.80;;;56.37;;
4533;SDS011;2279;51.448;7.306;2023-07-30T07:29:09;215.85;;;58.08;;
4533;SDS011;2279;51.448;7.306;2023-07-30T07:31:35;215.60;;;58.05;;
4533;SDS011;2279;51.448;7.306;2023-07-30T07:34:01;213.97;;;56.00;;
4533;SDS011;2279;51.448;7.306;2023-07-30T07:36:27;211.17;;;55.50;;
4533;SDS011;2279;51.448;7.306;2023-07-30T07:38:53;213.80;;;56.77;;
4533;SDS011;2279;51.448;7.306;2023-07-30T07:41:19;214.47;;;56.47;;
4533;SDS011;2279;51.448;7.306;2023-07-30T07:43:48;217.35;;;59.10;;
4533;SDS011;2279;51.448;7.306;2023-07-30T07:46:14;216.27;;;57.08;;
4533;SDS011;2279;51.448;7.306;2023-07-30T07:48:40;215.73;;;57.55;;
4533;SDS011;2279;51.448;7.306;2023-07-30T07:51:07;216.10;;;57.55;;
4533;SDS011;2279;51.448;7.306;2023-07-30T07:53:33;217.27;;;58.08;;
4533;SDS011;2279;51.448;7.306;2023-07-30T07:55:59;216.30;;;58.25;;
4533;SDS011;2279;51.448;7.306;2023-07-30T07:58:25;215.13;;;57.13;;
4533;SDS011;2279;51.448;7.306;2023-07-30T08:00:53;218.75;;;58.95;;
4533;SDS011;2279;51.448;7.306;2023-07-30T08:03:20;215.90;;;56.70;;
4533;SDS011;2279;51.448;7.306;2023-07-30T08:05:46;215.75;;;57.30;;
4533;SDS011;2279;51.448;7.306;2023-07-30T08:08:12;215.60;;;56.03;;
4533;SDS011;2279;51.448;7.306;2023-07-30T08:10:38;214.67;;;57.27;;
4533;SDS011;2279;51.448;7.306;2023-07-30T08:13:04;217.00;;;57.47;;
4533;SDS011;2279;51.448;7.306;2023-07-30T08:15:30;215.47;;;57.53;;
4533;SDS011;2279;51.448;7.306;2023-07-30T08:17:58;215.45;;;57.92;;
4533;SDS011;2279;51.448;7.306;2023-07-30T08:20:24;217.77;;;58.67;;
4533;SDS011;2279;51.448;7.306;2023-07-30T08:22:50;217.97;;;59.03;;
4533;SDS011;2279;51.448;7.306;2023-07-30T08:25:16;219.37;;;59.10;;
4533;SDS011;2279;51.448;7.306;2023-07-30T08:27:42;215.93;;;58.03;;
4533;SDS011;2279;51.448;7.306;2023-07-30T08:30:08;215.57;;;58.03;;
4533;SDS011;2279;51.448;7.306;2023-07-30T08:32:34;218.65;;;58.75;;
4533;SDS011;2279;51.448;7.306;2023-07-30T08:35:00;214.77;;;57.67;;
4533;SDS011;2279;51.448;7.306;2023-07-30T08:37:26;214.00;;;56.80;;
4533;SDS011;2279;51.448;7.306;2023-07-30T08:39:52;216.57;;;59.67;;
4533;SDS011;2279;51.448;7.306;2023-07-30T08:42:18;215.70;;;57.67;;
4533;SDS011;2279;51.448;7.306;2023-07-30T08:44:44;214.67;;;58.57;;
4533;SDS011;2279;51.448;7.306;2023-07-30T08:47:10;212.87;;;57.07;;
4533;SDS011;2279;51.448;7.306;2023-07-30T08:49:36;214.25;;;57.65;;
4533;SDS011;2279;51.448;7.306;2023-07-30T08:52:03;212.33;;;57.50;;
4533;SDS011;2279;51.448;7.306;2023-07-30T08:54:30;213.65;;;57.60;;
4533;SDS011;2279;51.448;7.306;2023-07-30T08:56:57;214.10;;;56.70;;
4533;SDS011;2279;51.448;7.306;2023-07-30T08:59:24;214.90;;;57.90;;
4533;SDS011;2279;51.448;7.306;2023-07-30T09:01:51;216.15;;;59.63;;
4533;SDS011;2279;51.448;7.306;2023-07-30T09:04:17;214.05;;;57.55;;
4533;SDS011;2279;51.448;7.306;2023-07-30T09:06:47;213.23;;;57.38;;
4533;SDS011;2279;51.448;7.306;2023-07-30T09:09:13;215.38;;;58.42;;
4533;SDS011;2279;51.448;7.306;2023-07-30T09:11:39;213.68;;;58.00;;
4533;SDS011;2279;51.448;7.306;2023-07-30T09:14:05;213.37;;;58.20;;
4533;SDS011;2279;51.448;7.306;2023-07-30T09:16:32;212.50;;;57.75;;
4533;SDS011;2279;51.448;7.306;2023-07-30T09:18:58;213.50;;;58.67;;
4533;SDS011;2279;51.448;7.306;2023-07-30T09:21:31;211.90;;;57.17;;
4533;SDS011;2279;51.448;7.306;2023-07-30T09:23:57;214.85;;;59.08;;
4533;SDS011;2279;51.448;7.306;2023-07-30T09:26:30;214.20;;;59.60;;
4533;SDS011;2279;51.448;7.306;2023-07-30T09:28:56;214.20;;;59.45;;
4533;SDS011;2279;51.448;7.306;2023-07-30T09:31:22;212.77;;;59.07;;
4533;SDS011;2279;51.448;7.306;2023-07-30T09:33:48;210.70;;;57.50;;
4533;SDS011;2279;51.448;7.306;2023-07-30T09:36:14;211.67;;;59.33;;
4533;SDS011;2279;51.448;7.306;2023-07-30T09:38:43;212.05;;;59.50;;
4533;SDS011;2279;51.448;7.306;2023-07-30T09:41:11;212.05;;;59.47;;
4533;SDS011;2279;51.448;7.306;2023-07-30T09:43:37;210.13;;;59.47;;
4533;SDS011;2279;51.448;7.306;2023-07-30T09:46:04;212.70;;;59.60;;
4533;SDS011;2279;51.448;7.306;2023-07-30T09:48:34;211.63;;;59.85;;
4533;SDS011;2279;51.448;7.306;2023-07-30T09:51:01;212.45;;;59.92;;
4533;SDS011;2279;51.448;7.306;2023-07-30T09:53:31;210.77;;;60.33;;
4533;SDS011;2279;51.448;7.306;2023-07-30T09:56:01;210.70;;;60.50;;
4533;SDS011;2279;51.448;7.306;2023-07-30T09:58:27;208.60;;;60.63;;
4533;SDS011;2279;51.448;7.306;2023-07-30T10:00:53;208.47;;;60.63;;
4533;SDS011;2279;51.448;7.306;2023-07-30T10:03:20;207.87;;;61.37;;
4533;SDS011;2279;51.448;7.306;2023-07-30T10:05:46;207.43;;;59.97;;
4533;SDS011;2279;51.448;7.306;2023-07-30T10:08:14;209.03;;;62.47;;
4533;SDS011;2279;51.448;7.306;2023-07-30T10:10:41;209.50;;;62.77;;
4533;SDS011;2279;51.448;7.306;2023-07-30T10:13:08;206.57;;;62.13;;
4533;SDS011;2279;51.448;7.306;2023-07-30T10:15:37;208.17;;;62.17;;
4533;SDS011;2279;51.448;7.306;2023-07-30T10:18:03;208.07;;;63.03;;
4533;SDS011;2279;51.448;7.306;2023-07-30T10:20:30;207.93;;;63.30;;
4533;SDS011;2279;51.448;7.306;2023-07-30T10:22:57;207.67;;;63.33;;
4533;SDS011;2279;51.448;7.306;2023-07-30T10:25:30;209.67;;;65.83;;
4533;SDS011;2279;51.448;7.306;2023-07-30T10:27:57;208.60;;;63.73;;
4533;SDS011;2279;51.448;7.306;2023-07-30T10:30:27;207.17;;;63.37;;
4533;SDS011;2279;51.448;7.306;2023-07-30T10:40:41;207.73;;;63.67;;
4533;SDS011;2279;51.448;7.306;2023-07-30T10:43:17;206.23;;;62.75;;
4533;SDS011;2279;51.448;7.306;2023-07-30T10:45:49;207.73;;;63.83;;
4533;SDS011;2279;51.448;7.306;2023-07-30T10:48:16;206.80;;;63.73;;
4533;SDS011;2279;51.448;7.306;2023-07-30T10:50:42;207.60;;;64.57;;
4533;SDS011;2279;51.448;7.306;2023-07-30T10:53:08;207.37;;;64.70;;
4533;SDS011;2279;51.448;7.306;2023-07-30T10:55:34;206.13;;;64.07;;
4533;SDS011;2279;51.448;7.306;2023-07-30T10:58:00;208.37;;;65.53;;
4533;SDS011;2279;51.448;7.306;2023-07-30T11:00:27;205.13;;;62.13;;
4533;SDS011;2279;51.448;7.306;2023-07-30T11:02:53;205.47;;;63.63;;
4533;SDS011;2279;51.448;7.306;2023-07-30T11:05:19;208.77;;;65.17;;
4533;SDS011;2279;51.448;7.306;2023-07-30T11:07:51;206.83;;;62.83;;
4533;SDS011;2279;51.448;7.306;2023-07-30T11:10:17;206.33;;;63.17;;
4533;SDS011;2279;51.448;7.306;2023-07-30T11:12:43;207.50;;;62.83;;
4533;SDS011;2279;51.448;7.306;2023-07-30T11:15:09;207.87;;;63.17;;
4533;SDS011;2279;51.448;7.306;2023-07-30T11:17:35;206.65;;;62.55;;
4533;SDS011;2279;51.448;7.306;2023-07-30T11:20:02;207.67;;;62.53;;
4533;SDS011;2279;51.448;7.306;2023-07-30T11:22:31;206.97;;;61.67;;
4533;SDS011;2279;51.448;7.306;2023-07-30T11:24:57;204.38;;;59.42;;
4533;SDS011;2279;51.448;7.306;2023-07-30T11:27:23;206.10;;;60.33;;
4533;SDS011;2279;51.448;7.306;2023-07-30T11:29:56;210.40;;;69.00;;
4533;SDS011;2279;51.448;7.306;2023-07-30T11:32:22;206.40;;;62.97;;
4533;SDS011;2279;51.448;7.306;2023-07-30T11:34:53;205.50;;;62.93;;
4533;SDS011;2279;51.448;7.306;2023-07-30T11:37:20;204.98;;;60.38;;
4533;SDS011;2279;51.448;7.306;2023-07-30T11:39:47;205.97;;;63.17;;
4533;SDS011;2279;51.448;7.306;2023-07-30T11:42:13;204.83;;;62.30;;
4533;SDS011;2279;51.448;7.306;2023-07-30T11:44:39;205.10;;;62.37;;
4533;SDS011;2279;51.448;7.306;2023-07-30T11:47:05;206.20;;;63.23;;
4533;SDS011;2279;51.448;7.306;2023-07-30T11:49:31;205.03;;;63.33;;
4533;SDS011;2279;51.448;7.306;2023-07-30T11:52:06;204.57;;;62.07;;
4533;SDS011;2279;51.448;7.306;2023-07-30T11:54:33;203.17;;;60.67;;
4533;SDS011;2279;51.448;7.306;2023-07-30T11:56:59;203.93;;;61.77;;
4533;SDS011;2279;51.448;7.306;2023-07-30T11:59:25;202.50;;;59.85;;
4533;SDS011;2279;51.448;7.306;2023-07-30T12:01:51;202.37;;;60.63;;
4533;SDS011;2279;51.448;7.306;2023-07-30T12:04:17;204.07;;;61.97;;
4533;SDS011;2279;51.448;7.306;2023-07-30T12:06:45;204.10;;;62.27;;
4533;SDS011;2279;51.448;7.306;2023-07-30T12:09:12;206.20;;;61.72;;
4533;SDS011;2279;51.448;7.306;2023-07-30T12:12:11;207.20;;;60.05;;
4533;SDS011;2279;51.448;7.306;2023-07-30T12:17:14;207.07;;;63.53;;
4533;SDS011;2279;51.448;7.306;2023-07-30T12:19:40;207.57;;;62.90;;
4533;SDS011;2279;51.448;7.306;2023-07-30T12:22:06;206.90;;;63.05;;
4533;SDS011;2279;51.448;7.306;2023-07-30T12:24:33;207.00;;;66.43;;
4533;SDS011;2279;51.448;7.306;2023-07-30T12:26:59;209.87;;;67.90;;
4533;SDS011;2279;51.448;7.306;2023-07-30T12:29:25;209.07;;;67.57;;
4533;SDS011;2279;51.448;7.306;2023-07-30T12:31:51;206.60;;;64.60;;
4533;SDS011;2279;51.448;7.306;2023-07-30T12:34:18;204.20;;;62.30;;
4533;SDS011;2279;51.448;7.306;2023-07-30T12:36:45;205.20;;;63.88;;
4533;SDS011;2279;51.448;7.306;2023-07-30T12:39:11;208.45;;;64.35;;
4533;SDS011;2279;51.448;7.306;2023-07-30T12:41:37;207.30;;;64.15;;
4533;SDS011;2279;51.448;7.306;2023-07-30T12:44:03;203.07;;;61.33;;
4533;SDS011;2279;51.448;7.306;2023-07-30T12:46:30;204.52;;;62.55;;
4533;SDS011;2279;51.448;7.306;2023-07-30T12:48:57;204.15;;;62.22;;
4533;SDS011;2279;51.448;7.306;2023-07-30T12:51:27;204.65;;;63.22;;
4533;SDS011;2279;51.448;7.306;2023-07-30T12:53:54;205.50;;;63.57;;
4533;SDS011;2279;51.448;7.306;2023-07-30T12:56:20;205.83;;;63.73;;
4533;SDS011;2279;51.448;7.306;2023-07-30T12:58:45;202.97;;;60.90;;
4533;SDS011;2279;51.448;7.306;2023-07-30T13:01:11;205.70;;;65.97;;
4533;SDS011;2279;51.448;7.306;2023-07-30T13:03:37;208.20;;;69.30;;
4533;SDS011;2279;51.448;7.306;2023-07-30T13:06:04;206.43;;;65.83;;
4533;SDS011;2279;51.448;7.306;2023-07-30T13:08:30;206.95;;;66.47;;
4533;SDS011;2279;51.448;7.306;2023-07-30T13:10:56;209.90;;;71.93;;
4533;SDS011;2279;51.448;7.306;2023-07-30T13:13:22;204.13;;;64.20;;
4533;SDS011;2279;51.448;7.306;2023-07-30T13:15:48;203.35;;;63.20;;
4533;SDS011;2279;51.448;7.306;2023-07-30T13:18:14;204.73;;;64.13;;
4533;SDS011;2279;51.448;7.306;2023-07-30T13:20:40;202.23;;;61.80;;
4533;SDS011;2279;51.448;7.306;2023-07-30T13:23:06;203.80;;;62.53;;
4533;SDS011;2279;51.448;7.306;2023-07-30T13:25:32;207.60;;;67.93;;
4533;SDS011;2279;51.448;7.306;2023-07-30T13:27:58;205.50;;;62.93;;
4533;SDS011;2279;51.448;7.306;2023-07-30T13:30:24;208.03;;;68.13;;
4533;SDS011;2279;51.448;7.306;2023-07-30T13:32:50;206.47;;;66.87;;
4533;SDS011;2279;51.448;7.306;2023-07-30T13:35:16;207.07;;;67.90;;
4533;SDS011;2279;51.448;7.306;2023-07-30T13:37:42;205.13;;;63.20;;
4533;SDS011;2279;51.448;7.306;2023-07-30T13:40:08;206.13;;;64.00;;
4533;SDS011;2279;51.448;7.306;2023-07-30T13:42:34;206.47;;;66.47;;
4533;SDS011;2279;51.448;7.306;2023-07-30T13:45:00;204.70;;;63.17;;
4533;SDS011;2279;51.448;7.306;2023-07-30T13:47:26;205.13;;;64.70;;
4533;SDS011;2279;51.448;7.306;2023-07-30T13:49:52;205.40;;;65.80;;
4533;SDS011;2279;51.448;7.306;2023-07-30T13:52:19;206.70;;;66.73;;
4533;SDS011;2279;51.448;7.306;2023-07-30T13:54:45;206.27;;;64.83;;
4533;SDS011;2279;51.448;7.306;2023-07-30T13:57:11;205.40;;;65.83;;
4533;SDS011;2279;51.448;7.306;2023-07-30T13:59:37;204.73;;;64.03;;
4533;SDS011;2279;51.448;7.306;2023-07-30T14:02:04;205.43;;;66.00;;
4533;SDS011;2279;51.448;7.306;2023-07-30T14:04:30;205.73;;;66.40;;
4533;SDS011;2279;51.448;7.306;2023-07-30T14:06:56;203.03;;;63.87;;
4533;SDS011;2279;51.448;7.306;2023-07-30T14:09:22;204.70;;;65.87;;
4533;SDS011;2279;51.448;7.306;2023-07-30T14:11:50;205.43;;;65.80;;
4533;SDS011;2279;51.448;7.306;2023-07-30T14:14:15;206.43;;;66.47;;
4533;SDS011;2279;51.448;7.306;2023-07-30T14:16:41;204.33;;;64.87;;
4533;SDS011;2279;51.448;7.306;2023-07-30T14:19:07;207.23;;;69.37;;
4533;SDS011;2279;51.448;7.306;2023-07-30T14:21:33;207.47;;;70.73;;
4533;SDS011;2279;51.448;7.306;2023-07-30T14:23:59;205.43;;;66.37;;
4533;SDS011;2279;51.448;7.306;2023-07-30T14:26:25;208.10;;;68.93;;
4533;SDS011;2279;51.448;7.306;2023-07-30T14:28:51;208.40;;;68.63;;
4533;SDS011;2279;51.448;7.306;2023-07-30T14:31:17;207.03;;;65.50;;
4533;SDS011;2279;51.448;7.306;2023-07-30T14:33:43;202.63;;;63.20;;
4533;SDS011;2279;51.448;7.306;2023-07-30T14:36:09;205.33;;;64.43;;
4533;SDS011;2279;51.448;7.306;2023-07-30T14:38:36;208.13;;;66.43;;
4533;SDS011;2279;51.448;7.306;2023-07-30T14:41:03;205.73;;;63.47;;